Latest Coastal Weather Observations for Maningrida Airport

IDD60701

Issued at 9:11 am CST Friday 30 September 2016 (issued every 10 minutes, with the page automatically refreshed every 10 minutes)

About coastal observations | Map of coastal stations | Coastal observations for NT | Marine services | Other Formats
Station Details ID: 014405 Name: MANINGRIDA AIRPORT Lat: -12.06 Lon: 134.23 Height: 28.1 m
Data from the previous 72 hours. | See also: Recent months at Maningrida Airport
Date/Time
CST
Temp
°C
Wind Pressure Rain since
9am
mm
Weather Cloud Vis
km
Sea
Height
m
Swell
Dir  Spd
kts
Gust
kts
hPa Trend Height
m
Period
s
Dir
30/09:00am 29.2 SSE 5 7 1010.3 - 0.0 - Partly cloudy 10 - - - -
30/08:30am 28.2 S 5 7 1010.2 - 0.0 - - 10 - - - -
30/08:00am 28.0 SSE 5 7 1010.1 - 0.0 - - 10 - - - -
30/07:30am 26.7 SSE 6 8 1010.0 - 0.0 - - 10 - - - -
30/07:00am 24.8 SSW 3 5 1009.8 - 0.0 - - 10 - - - -
30/06:30am 24.4 SSW 4 5 1009.6 - 0.0 - - - - - - -
30/06:00am 24.5 SSW 4 5 1009.3 - 0.0 - - 10 - - - -
30/05:30am 24.7 SSW 5 6 1008.9 - 0.0 - - 10 - - - -
30/05:00am 24.9 SSW 4 5 1008.4 - 0.0 - - 10 - - - -
30/04:30am 25.3 SSW 5 7 1008.4 - 0.0 - Partly cloudy 10 - - - -
30/04:00am 25.6 SSW 4 5 1008.3 - 0.0 - Partly cloudy 10 - - - -
30/03:30am 25.9 SSW 5 7 1008.4 - 0.0 - Partly cloudy 10 - - - -
30/03:00am 26.7 NNE 3 4 1008.5 - 0.0 - Partly cloudy 10 - - - -
30/02:30am 27.3 N 5 6 1008.6 - 0.0 - Partly cloudy 10 - - - -
30/02:00am 27.3 N 7 10 1008.5 - 0.0 - Partly cloudy 10 - - - -
30/01:30am 27.4 NNE 7 10 1008.7 - 0.0 - Partly cloudy 10 - - - -
30/01:00am 27.3 NNE 7 10 1008.8 - 0.0 - Partly cloudy 10 - - - -
30/12:30am 27.5 N 8 11 1009.1 - 0.0 - Partly cloudy 10 - - - -
30/12:00am 27.6 N 8 10 1009.5 - 0.0 - Mostly clear 10 - - - -
 
Date/Time
CST
Temp
°C
Wind Pressure Rain since
9am
mm
Weather Cloud Vis
km
Sea
Height
m
Swell
Dir  Spd
kts
Gust
kts
hPa Trend Height
m
Period
s
Dir
29/11:30pm 27.5 N 7 10 1009.7 - 0.0 - Partly cloudy 10 - - - -
29/11:00pm 27.6 N 6 8 1010.0 - 0.0 - Partly cloudy 10 - - - -
29/10:30pm 27.8 N 6 8 1010.0 - 0.0 - Partly cloudy 10 - - - -
29/10:00pm 27.9 N 8 11 1009.9 - 0.0 - Partly cloudy 10 - - - -
29/09:30pm 27.9 N 7 10 1009.5 - 0.0 - Partly cloudy 10 - - - -
29/09:00pm 27.9 N 6 9 1009.6 - 0.0 - Partly cloudy 10 - - - -
29/08:30pm 27.9 N 8 11 1008.8 - 0.0 - Partly cloudy 10 - - - -
29/08:00pm 27.9 N 7 11 1008.2 - 0.0 - - 10 - - - -
29/07:30pm 27.9 NNE 8 10 1007.8 - 0.0 - - 10 - - - -
29/07:00pm 28.0 NNE 8 12 1007.7 - 0.0 - - 10 - - - -
29/06:30pm 28.2 N 9 12 1007.2 - 0.0 - - 10 - - - -
29/06:00pm 28.5 NNE 10 14 1006.8 - 0.0 - - 10 - - - -
29/05:30pm 29.1 NNE 10 15 1006.7 - 0.0 - - 10 - - - -
29/05:00pm 29.8 N 10 13 1006.5 - 0.0 - - 10 - - - -
29/04:30pm 29.9 N 11 15 1006.5 - 0.0 - - 10 - - - -
29/04:00pm 30.1 N 11 15 1006.6 - 0.0 - - 10 - - - -
29/03:30pm 29.7 N 11 16 1006.6 - 0.0 - - 10 - - - -
29/03:00pm 30.3 N 10 13 1006.9 - 0.0 - Mostly clear 10 - - - -
29/02:30pm 30.4 N 11 14 1007.2 - 0.0 - - 10 - - - -
29/02:00pm 30.3 N 10 14 1007.6 - 0.0 - - 10 - - - -
29/01:30pm 30.2 N 11 14 1008.1 - 0.0 - - 10 - - - -
29/01:00pm 30.4 NNW 11 14 1008.4 - 0.0 - - 10 - - - -
29/12:30pm 30.8 N 9 13 1008.7 - 0.0 - - 10 - - - -
29/12:00pm 29.9 N 9 13 1009.0 - 0.0 - - 10 - - - -
29/11:30am 29.4 NNW 8 13 1009.4 - 0.0 - - 10 - - - -
29/11:00am 29.6 NNW 9 12 1009.7 - 0.0 - - 10 - - - -
29/10:30am 29.8 N 6 9 1010.2 - 0.0 - Partly cloudy 10 - - - -
29/10:00am 29.0 N 7 9 1010.1 - 0.0 - Partly cloudy 10 - - - -
29/09:30am 28.8 N 6 7 1010.3 - 0.0 - - 10 - - - -
29/09:00am 28.4 NNE 4 5 1010.1 - 0.0 - - 10 - - - -
29/08:30am 27.2 E 3 5 1010.0 - 0.0 - - 10 - - - -
29/08:00am 25.9 S 3 3 1009.8 - 0.0 - - 10 - - - -
29/07:30am 24.9 S 3 5 1009.6 - 0.0 - - 10 - - - -
29/07:00am 24.2 S 1 4 1009.2 - 0.0 - - 9 - - - -
29/06:38am 24.0 S 1 3 1008.9 - 0.0 - - 8 - - - -
29/06:30am 23.9 S 2 3 1008.8 - 0.0 - - 6 - - - -
29/06:23am 23.9 CALM 0 0 1008.8 - 0.0 - - 5 - - - -
29/06:00am 24.1 CALM 0 0 1008.6 - 0.0 - - 10 - - - -
29/05:30am 24.0 S 3 5 1008.6 - 0.0 - Partly cloudy 10 - - - -
29/05:00am 23.9 S 4 5 1008.5 - 0.0 - Partly cloudy 10 - - - -
29/04:30am 24.0 CALM 0 0 1008.0 - 0.0 - - 10 - - - -
29/04:00am 24.0 S 4 5 1008.0 - 0.0 - - - - - - -
29/03:30am 24.2 S 3 4 1008.1 - 0.0 - - 10 - - - -
29/03:00am 24.3 S 3 4 1008.2 - 0.0 - Mostly clear 10 - - - -
29/02:30am 24.5 ENE 4 5 1008.5 - 0.0 - - 10 - - - -
29/02:00am 24.5 NNE 3 5 1008.8 - 0.0 - Partly cloudy 10 - - - -
29/01:30am 24.8 CALM 0 0 1008.8 - 0.0 - - 10 - - - -
29/01:00am 24.8 CALM 0 0 1009.3 - 0.0 - - 10 - - - -
29/12:30am 25.4 CALM 0 2 1009.6 - 0.0 - - 10 - - - -
29/12:00am 25.9 NNE 2 3 1009.8 - 0.0 - - 10 - - - -
 
Date/Time
CST
Temp
°C
Wind Pressure Rain since
9am
mm
Weather Cloud Vis
km
Sea
Height
m
Swell
Dir  Spd
kts
Gust
kts
hPa Trend Height
m
Period
s
Dir
28/11:30pm 26.5 CALM 0 3 1009.8 - 0.0 - - 10 - - - -
28/11:00pm 26.6 NNE 5 7 1009.7 - 0.0 - - 10 - - - -
28/10:30pm 26.5 NNE 4 6 1009.7 - 0.0 - - 10 - - - -
28/10:00pm 26.5 ENE 4 5 1009.7 - 0.0 - - 10 - - - -
28/09:30pm 26.9 NE 3 4 1009.6 - 0.0 - - 10 - - - -
28/09:00pm 27.3 NE 3 4 1009.5 - 0.0 - - 10 - - - -
28/08:30pm 27.9 NNE 6 8 1009.2 - 0.0 - - 10 - - - -
28/08:00pm 27.7 NNE 4 7 1009.0 - 0.0 - - 10 - - - -
28/07:30pm 27.9 NNE 5 7 1009.0 - 0.0 - - 10 - - - -
28/07:00pm 27.9 NNE 4 6 1008.9 - 0.0 - - 10 - - - -
28/06:30pm 28.4 NNE 6 9 1008.6 - 0.0 - - 10 - - - -
28/06:00pm 28.7 NNE 8 10 1008.3 - 0.0 - - 10 - - - -
28/05:30pm 29.0 N 8 11 1008.2 - 0.0 - - 10 - - - -
28/05:00pm 29.7 N 9 13 1008.1 - 0.0 - - 10 - - - -
28/04:30pm 30.0 N 10 13 1008.0 - 0.0 - - 10 - - - -
28/04:00pm 30.4 NNW 9 12 1008.2 - 0.0 - - 10 - - - -
28/03:30pm 29.8 N 9 14 1008.3 - 0.0 - - 10 - - - -
28/03:00pm 30.5 N 10 14 1008.4 - 0.0 - - 10 - - - -
28/02:30pm 31.1 NNW 9 12 1008.7 - 0.0 - - 10 - - - -
28/02:00pm 30.7 NNW 10 13 1009.0 - 0.0 - - 10 - - - -
28/01:30pm 30.6 N 11 15 1009.4 - 0.0 - - 10 - - - -
28/01:00pm 30.9 N 11 14 1009.9 - 0.0 - Partly cloudy 10 - - - -
28/12:30pm 30.7 NNW 9 13 1010.3 - 0.0 - Partly cloudy 10 - - - -
28/12:00pm 30.5 N 9 13 1010.8 - 0.0 - Mostly clear 10 - - - -
28/11:30am 30.4 N 10 13 1011.2 - 0.0 - Partly cloudy 10 - - - -
28/11:00am 30.1 N 10 14 1011.5 - 0.0 - Partly cloudy 10 - - - -
28/10:30am 29.7 NNE 9 13 1011.7 - 0.0 - Partly cloudy 10 - - - -
28/10:00am 29.9 N 9 12 1011.6 - 0.0 - - 10 - - - -
28/09:30am 29.9 N 7 10 1011.6 - 0.0 - Partly cloudy 10 - - - -
28/09:00am 29.1 NW 5 8 1011.4 - 0.0 - Partly cloudy 10 - - - -
28/08:30am 28.3 NW 4 6 1011.4 - 0.0 - Partly cloudy 10 - - - -
28/08:00am 27.8 NNE 4 6 1011.2 - 0.0 - - 10 - - - -
28/07:30am 25.9 S 2 4 1010.7 - 0.0 - - 10 - - - -
28/07:00am 24.6 CALM 0 0 1010.3 - 0.0 - - - - - - -
28/06:30am 24.1 S 3 4 1010.0 - 0.0 - - - - - - -
28/06:00am 24.1 S 3 4 1009.7 - 0.0 - - - - - - -
28/05:30am 24.2 S 2 3 1009.4 - 0.0 - - - - - - -
28/05:00am 24.1 CALM 0 1 1009.1 - 0.0 - - 9 - - - -
28/04:30am 24.3 S 1 4 1008.8 - 0.0 - - 9 - - - -
28/04:00am 24.3 CALM 0 0 1008.7 - 0.0 - - 10 - - - -
28/03:30am 24.5 S 3 3 1008.8 - 0.0 - - - - - - -
28/03:18am 24.6 SSE 3 4 1008.7 - 0.0 - - 5 - - - -
28/03:00am 24.7 NE 3 4 1008.9 - 0.0 - - 8 - - - -
28/02:30am 24.8 NE 1 4 1009.2 - 0.0 - - 10 - - - -
28/02:03am 24.8 CALM 0 0 1009.2 - 0.0 - - 10 - - - -
28/02:00am 24.9 CALM 0 0 1009.3 - 0.0 - - 10 - - - -
28/01:46am 25.1 CALM 0 0 1009.3 - 0.0 - - 5 - - - -
28/01:30am 25.1 CALM 0 0 1009.3 - 0.0 - - 10 - - - -
28/01:00am 25.4 CALM 0 0 1009.4 - 0.0 - - 10 - - - -
28/12:30am 25.9 CALM 0 0 1009.8 - 0.0 - - 10 - - - -
28/12:00am 26.2 CALM 0 0 1010.1 - 0.0 - - 10 - - - -
 
Date/Time
CST
Temp
°C
Wind Pressure Rain since
9am
mm
Weather Cloud Vis
km
Sea
Height
m
Swell
Dir  Spd
kts
Gust
kts
hPa Trend Height
m
Period
s
Dir
27/11:30pm 26.8 NNE 3 4 1010.3 - 0.0 - - 10 - - - -
27/11:00pm 27.1 NNE 3 4 1010.4 - 0.0 - Partly cloudy 10 - - - -
27/10:30pm 27.4 NNE 5 6 1010.3 - 0.0 - - 10 - - - -
27/10:00pm 27.5 NNE 4 5 1010.3 - 0.0 - Partly cloudy 10 - - - -
27/09:30pm 27.8 NNE 6 9 1009.9 - 0.0 - Partly cloudy 10 - - - -
27/09:00pm 27.6 NNE 5 6 1009.8 - 0.0 - Mostly clear 10 - - - -
27/08:30pm 27.9 NNE 6 8 1009.6 - 0.0 - Partly cloudy 10 - - - -
27/08:00pm 27.9 NNE 7 10 1009.2 - 0.0 - - 10 - - - -
27/07:30pm 28.0 N 8 11 1008.8 - 0.0 - Partly cloudy 10 - - - -
27/07:00pm 28.2 NNE 9 12 1008.4 - 0.0 - - 10 - - - -
27/06:30pm 28.4 NNE 8 11 1008.4 - 0.0 - - 10 - - - -
27/06:00pm 28.8 N 9 11 1008.3 - 0.0 - - 10 - - - -
27/05:30pm 29.1 N 10 14 1008.0 - 0.0 - - 10 - - - -
27/05:00pm 30.6 N 12 16 1007.9 - 0.0 - Partly cloudy 10 - - - -
27/04:30pm 30.4 N 11 14 1008.1 - 0.0 - - 10 - - - -
27/04:00pm 30.3 N 11 15 1008.0 - 0.0 - - 10 - - - -
27/03:30pm 30.4 N 13 17 1008.2 - 0.0 - - 10 - - - -
27/03:00pm 30.9 N 12 16 1008.3 - 0.0 - - 10 - - - -
27/02:30pm 31.2 N 12 16 1008.5 - 0.0 - - 10 - - - -
27/02:00pm 32.2 N 13 16 1008.8 - 0.0 - - 10 - - - -
27/01:30pm 32.3 N 12 17 1009.1 - 0.0 - - 10 - - - -
27/01:00pm 31.3 N 12 17 1009.4 - 0.0 - - 10 - - - -
27/12:30pm 32.0 N 11 15 1009.8 - 0.0 - - 10 - - - -
27/12:00pm 33.0 N 9 13 1010.3 - 0.0 - - 10 - - - -
27/11:30am 31.6 N 8 11 1010.9 - 0.0 - - 10 - - - -
27/11:00am 31.3 N 8 10 1011.2 - 0.0 - - 10 - - - -
27/10:30am 31.6 NNW 7 10 1011.5 - 0.0 - - 10 - - - -
27/10:00am 30.4 WNW 5 8 1011.6 - 0.0 - Partly cloudy 10 - - - -
27/09:30am 30.3 SSW 6 9 1011.7 - 0.0 - Partly cloudy 10 - - - -

Other Formats:

Comma delimited format used in spreadsheet applications
http://www.bom.gov.au/fwo/IDD60701/IDD60701.95142.axf

JavaScript Object Notation format (JSON) in row-major order
http://www.bom.gov.au/fwo/IDD60701/IDD60701.95142.json